Orbital elements of FENGYUN 1C DEB
| Launched | 9 May 1999 |
| Flight ended | – |
| Launch site | Taiyuan Space Center, PRC |
| Owner | People's Republic of China |
| NORAD ID | 35233 |
| Date fetched |
Epoch osculation |
Inc. [°] |
Ecc. | RA asc node [hr] |
Arg Peri. [°] |
Mean anom [°] |
Mean motion [rev/day] |
Abs. mag |
| Date fetched |
Epoch osculation |
Inc. [°] |
Ecc. | RA asc node [hr] |
Arg Peri. [°] |
Mean anom [°] |
Mean motion [rev/day] |
Abs. mag |
| 2026 May 07 17:58 | 2026 May 05 06:18:50 | 98.7692 | 0.00409 | 15.5671 | 190.3765 | 199.0444 | 14.43954 | – |
| 2026 May 06 17:57 | 2026 May 05 06:18:50 | 98.7692 | 0.00409 | 15.5671 | 190.3765 | 199.0444 | 14.43954 | – |
| 2026 May 05 17:57 | 2026 May 05 06:18:50 | 98.7692 | 0.00409 | 15.5671 | 190.3765 | 199.0444 | 14.43954 | – |
| 2026 May 04 17:57 | 2026 Apr 30 06:33:44 | 98.7689 | 0.00405 | 15.2244 | 204.7749 | 199.0444 | 14.43954 | – |
| 2026 May 03 17:57 | 2026 Apr 30 06:33:44 | 98.7689 | 0.00405 | 15.2244 | 204.7749 | 199.0444 | 14.43954 | – |
| 2026 May 02 17:57 | 2026 Apr 30 06:33:44 | 98.7689 | 0.00405 | 15.2244 | 204.7749 | 199.0444 | 14.43954 | – |
| 2026 May 01 17:56 | 2026 Apr 30 06:33:44 | 98.7689 | 0.00405 | 15.2244 | 204.7749 | 199.0444 | 14.43954 | – |
| 2026 Apr 30 17:56 | 2026 Apr 30 06:33:44 | 98.7689 | 0.00405 | 15.2244 | 204.7749 | 199.0444 | 14.43954 | – |
| 2026 Apr 29 17:57 | 2026 Apr 23 06:34:45 | 98.7691 | 0.00399 | 14.7438 | 225.4484 | 199.0444 | 14.43954 | – |
| 2026 Apr 28 17:56 | 2026 Apr 23 06:34:45 | 98.7691 | 0.00399 | 14.7438 | 225.4484 | 199.0444 | 14.43954 | – |
| 2026 Apr 27 17:58 | 2026 Apr 23 06:34:45 | 98.7691 | 0.00399 | 14.7438 | 225.4484 | 199.0444 | 14.43954 | – |
| 2026 Apr 26 17:58 | 2026 Apr 23 06:34:45 | 98.7691 | 0.00399 | 14.7438 | 225.4484 | 199.0444 | 14.43954 | – |
| 2026 Apr 25 17:58 | 2026 Apr 23 06:34:45 | 98.7691 | 0.00399 | 14.7438 | 225.4484 | 199.0444 | 14.43954 | – |
| 2026 Apr 24 17:59 | 2026 Apr 23 06:34:45 | 98.7691 | 0.00399 | 14.7438 | 225.4484 | 199.0444 | 14.43954 | – |
| 2026 Apr 23 17:57 | 2026 Apr 19 06:07:16 | 98.7678 | 0.00394 | 14.4677 | 237.3629 | 199.0444 | 14.43954 | – |
| 2026 Apr 22 17:57 | 2026 Apr 19 06:07:16 | 98.7678 | 0.00394 | 14.4677 | 237.3629 | 199.0444 | 14.43954 | – |
| 2026 Apr 21 17:57 | 2026 Apr 19 06:07:16 | 98.7678 | 0.00394 | 14.4677 | 237.3629 | 199.0444 | 14.43954 | – |
| 2026 Apr 20 17:57 | 2026 Apr 19 06:07:16 | 98.7678 | 0.00394 | 14.4677 | 237.3629 | 199.0444 | 14.43954 | – |
| 2026 Apr 19 17:58 | 2026 Apr 19 06:07:16 | 98.7678 | 0.00394 | 14.4677 | 237.3629 | 199.0444 | 14.43954 | – |
| 2026 Apr 18 17:56 | 2026 Apr 12 06:07:44 | 98.7665 | 0.00387 | 13.9871 | 258.5320 | 199.0444 | 14.43954 | – |
| 2026 Apr 16 17:57 | 2026 Apr 12 06:07:44 | 98.7665 | 0.00387 | 13.9871 | 258.5320 | 199.0444 | 14.43954 | – |
| 2026 Apr 14 17:57 | 2026 Apr 12 06:07:44 | 98.7665 | 0.00387 | 13.9871 | 258.5320 | 199.0444 | 14.43954 | – |
| 2026 Apr 13 17:57 | 2026 Apr 12 06:07:44 | 98.7665 | 0.00387 | 13.9871 | 258.5320 | 199.0444 | 14.43954 | – |
| 2026 Apr 12 17:57 | 2026 Apr 07 06:29:40 | 98.7667 | 0.00381 | 13.6449 | 273.8279 | 199.0444 | 14.43954 | – |
| 2026 Apr 11 17:57 | 2026 Apr 07 06:29:40 | 98.7667 | 0.00381 | 13.6449 | 273.8279 | 199.0444 | 14.43954 | – |
| 2026 Apr 10 17:58 | 2026 Apr 07 06:29:40 | 98.7667 | 0.00381 | 13.6449 | 273.8279 | 199.0444 | 14.43954 | – |